sensor_id;sensor_type;location;lat;lon;timestamp;temperature;humidity
21487;DHT22;10905;50.822;4.336;2023-02-28T00:00:10;2.40;99.90
21487;DHT22;10905;50.822;4.336;2023-02-28T00:02:38;2.40;99.90
21487;DHT22;10905;50.822;4.336;2023-02-28T00:05:04;2.40;99.90
21487;DHT22;10905;50.822;4.336;2023-02-28T00:07:31;2.30;99.90
21487;DHT22;10905;50.822;4.336;2023-02-28T00:09:57;2.30;99.90
21487;DHT22;10905;50.822;4.336;2023-02-28T00:12:23;2.40;99.90
21487;DHT22;10905;50.822;4.336;2023-02-28T00:14:49;2.40;99.90
21487;DHT22;10905;50.822;4.336;2023-02-28T00:17:15;2.30;99.90
21487;DHT22;10905;50.822;4.336;2023-02-28T00:19:43;2.40;99.90
21487;DHT22;10905;50.822;4.336;2023-02-28T00:22:09;2.30;99.90
21487;DHT22;10905;50.822;4.336;2023-02-28T00:24:35;2.40;99.90
21487;DHT22;10905;50.822;4.336;2023-02-28T00:27:00;2.30;99.90
21487;DHT22;10905;50.822;4.336;2023-02-28T00:29:26;2.20;99.90
21487;DHT22;10905;50.822;4.336;2023-02-28T00:31:52;2.20;99.90
21487;DHT22;10905;50.822;4.336;2023-02-28T00:34:17;2.20;99.90
21487;DHT22;10905;50.822;4.336;2023-02-28T00:36:43;2.30;99.90
21487;DHT22;10905;50.822;4.336;2023-02-28T00:39:11;2.20;99.90
21487;DHT22;10905;50.822;4.336;2023-02-28T00:41:37;2.20;99.90
21487;DHT22;10905;50.822;4.336;2023-02-28T00:44:02;2.20;99.90
21487;DHT22;10905;50.822;4.336;2023-02-28T00:46:28;2.20;99.90
21487;DHT22;10905;50.822;4.336;2023-02-28T00:48:54;2.10;99.90
21487;DHT22;10905;50.822;4.336;2023-02-28T00:51:19;2.10;99.90
21487;DHT22;10905;50.822;4.336;2023-02-28T00:53:45;2.10;99.90
21487;DHT22;10905;50.822;4.336;2023-02-28T00:56:10;2.10;99.90
21487;DHT22;10905;50.822;4.336;2023-02-28T00:58:36;2.10;99.90
21487;DHT22;10905;50.822;4.336;2023-02-28T01:01:03;2.00;99.90
21487;DHT22;10905;50.822;4.336;2023-02-28T01:03:29;2.00;99.90
21487;DHT22;10905;50.822;4.336;2023-02-28T01:05:54;2.10;99.90
21487;DHT22;10905;50.822;4.336;2023-02-28T01:08:20;2.00;99.90
21487;DHT22;10905;50.822;4.336;2023-02-28T01:10:46;2.00;99.90
21487;DHT22;10905;50.822;4.336;2023-02-28T01:13:12;2.00;99.90
21487;DHT22;10905;50.822;4.336;2023-02-28T01:15:38;2.00;99.90
21487;DHT22;10905;50.822;4.336;2023-02-28T01:18:06;2.20;99.90
21487;DHT22;10905;50.822;4.336;2023-02-28T01:20:32;2.00;99.90
21487;DHT22;10905;50.822;4.336;2023-02-28T01:22:58;2.10;99.90
21487;DHT22;10905;50.822;4.336;2023-02-28T01:25:23;2.10;99.90
21487;DHT22;10905;50.822;4.336;2023-02-28T01:27:49;2.20;99.90
21487;DHT22;10905;50.822;4.336;2023-02-28T01:30:15;2.20;99.90
21487;DHT22;10905;50.822;4.336;2023-02-28T01:32:40;2.20;99.90
21487;DHT22;10905;50.822;4.336;2023-02-28T01:35:06;2.10;99.90
21487;DHT22;10905;50.822;4.336;2023-02-28T01:37:32;2.00;99.90
21487;DHT22;10905;50.822;4.336;2023-02-28T01:39:57;2.20;99.90
21487;DHT22;10905;50.822;4.336;2023-02-28T01:42:23;2.10;99.90
21487;DHT22;10905;50.822;4.336;2023-02-28T01:45:16;2.00;99.90
21487;DHT22;10905;50.822;4.336;2023-02-28T01:47:43;2.00;99.90
21487;DHT22;10905;50.822;4.336;2023-02-28T01:50:15;2.00;99.90
21487;DHT22;10905;50.822;4.336;2023-02-28T01:52:44;2.00;99.90
21487;DHT22;10905;50.822;4.336;2023-02-28T01:55:11;1.90;99.90
21487;DHT22;10905;50.822;4.336;2023-02-28T01:57:43;1.90;99.90
21487;DHT22;10905;50.822;4.336;2023-02-28T02:00:14;1.80;99.90
21487;DHT22;10905;50.822;4.336;2023-02-28T02:02:45;1.80;99.90
21487;DHT22;10905;50.822;4.336;2023-02-28T02:05:18;1.80;99.90
21487;DHT22;10905;50.822;4.336;2023-02-28T02:07:47;1.80;99.90
21487;DHT22;10905;50.822;4.336;2023-02-28T02:10:20;1.70;99.90
21487;DHT22;10905;50.822;4.336;2023-02-28T02:17:58;1.60;99.90
21487;DHT22;10905;50.822;4.336;2023-02-28T02:29:51;1.50;99.90
21487;DHT22;10905;50.822;4.336;2023-02-28T02:35:27;1.60;99.90
21487;DHT22;10905;50.822;4.336;2023-02-28T02:44:04;1.50;99.90
21487;DHT22;10905;50.822;4.336;2023-02-28T02:46:38;1.40;99.90
21487;DHT22;10905;50.822;4.336;2023-02-28T02:49:08;1.50;99.90
21487;DHT22;10905;50.822;4.336;2023-02-28T02:51:36;1.60;99.90
21487;DHT22;10905;50.822;4.336;2023-02-28T02:54:30;1.60;99.90
21487;DHT22;10905;50.822;4.336;2023-02-28T02:57:00;1.50;99.90
21487;DHT22;10905;50.822;4.336;2023-02-28T02:59:28;1.50;99.90
21487;DHT22;10905;50.822;4.336;2023-02-28T03:01:57;1.50;99.90
21487;DHT22;10905;50.822;4.336;2023-02-28T03:04:27;1.70;99.90
21487;DHT22;10905;50.822;4.336;2023-02-28T03:06:54;1.60;99.90
21487;DHT22;10905;50.822;4.336;2023-02-28T03:09:24;1.50;99.90
21487;DHT22;10905;50.822;4.336;2023-02-28T03:11:54;1.50;99.90
21487;DHT22;10905;50.822;4.336;2023-02-28T03:20:28;1.40;99.90
21487;DHT22;10905;50.822;4.336;2023-02-28T03:23:17;1.50;99.90
21487;DHT22;10905;50.822;4.336;2023-02-28T03:26:17;1.50;99.90
21487;DHT22;10905;50.822;4.336;2023-02-28T03:28:55;1.50;99.90
21487;DHT22;10905;50.822;4.336;2023-02-28T03:31:30;1.60;99.90
21487;DHT22;10905;50.822;4.336;2023-02-28T03:36:35;1.50;99.90
21487;DHT22;10905;50.822;4.336;2023-02-28T03:39:19;1.60;99.90
21487;DHT22;10905;50.822;4.336;2023-02-28T03:41:57;1.60;99.90
21487;DHT22;10905;50.822;4.336;2023-02-28T03:44:32;1.50;99.90
21487;DHT22;10905;50.822;4.336;2023-02-28T03:47:05;1.40;99.90
21487;DHT22;10905;50.822;4.336;2023-02-28T03:49:36;1.50;99.90
21487;DHT22;10905;50.822;4.336;2023-02-28T03:52:06;1.50;99.90
21487;DHT22;10905;50.822;4.336;2023-02-28T03:54:36;1.40;99.90
21487;DHT22;10905;50.822;4.336;2023-02-28T03:59:52;1.50;99.90
21487;DHT22;10905;50.822;4.336;2023-02-28T04:02:18;1.60;99.90
21487;DHT22;10905;50.822;4.336;2023-02-28T04:04:45;1.50;99.90
21487;DHT22;10905;50.822;4.336;2023-02-28T04:07:15;1.50;99.90
21487;DHT22;10905;50.822;4.336;2023-02-28T04:09:41;1.40;99.90
21487;DHT22;10905;50.822;4.336;2023-02-28T04:12:08;1.40;99.90
21487;DHT22;10905;50.822;4.336;2023-02-28T04:14:34;1.50;99.90
21487;DHT22;10905;50.822;4.336;2023-02-28T04:17:00;1.40;99.90
21487;DHT22;10905;50.822;4.336;2023-02-28T04:19:25;1.30;99.90
21487;DHT22;10905;50.822;4.336;2023-02-28T04:21:52;1.30;99.90
21487;DHT22;10905;50.822;4.336;2023-02-28T04:24:25;1.20;99.90
21487;DHT22;10905;50.822;4.336;2023-02-28T04:26:54;1.20;99.90
21487;DHT22;10905;50.822;4.336;2023-02-28T04:29:25;1.10;99.90
21487;DHT22;10905;50.822;4.336;2023-02-28T04:31:56;1.10;99.90
21487;DHT22;10905;50.822;4.336;2023-02-28T04:34:25;1.20;99.90
21487;DHT22;10905;50.822;4.336;2023-02-28T04:36:54;1.10;99.90
21487;DHT22;10905;50.822;4.336;2023-02-28T04:39:21;1.10;99.90
21487;DHT22;10905;50.822;4.336;2023-02-28T04:41:47;1.00;99.90
21487;DHT22;10905;50.822;4.336;2023-02-28T04:44:15;1.00;99.90
21487;DHT22;10905;50.822;4.336;2023-02-28T04:46:41;0.90;99.90
21487;DHT22;10905;50.822;4.336;2023-02-28T04:49:09;1.00;99.90
21487;DHT22;10905;50.822;4.336;2023-02-28T04:51:36;1.00;99.90
21487;DHT22;10905;50.822;4.336;2023-02-28T04:54:01;1.00;99.90
21487;DHT22;10905;50.822;4.336;2023-02-28T04:56:27;1.00;99.90
21487;DHT22;10905;50.822;4.336;2023-02-28T04:58:53;1.10;99.90
21487;DHT22;10905;50.822;4.336;2023-02-28T05:01:23;1.00;99.90
21487;DHT22;10905;50.822;4.336;2023-02-28T05:03:52;1.00;99.90
21487;DHT22;10905;50.822;4.336;2023-02-28T05:06:18;1.00;99.90
21487;DHT22;10905;50.822;4.336;2023-02-28T05:08:44;1.10;99.90
21487;DHT22;10905;50.822;4.336;2023-02-28T05:11:21;1.10;99.90
21487;DHT22;10905;50.822;4.336;2023-02-28T05:13:49;1.10;99.90
21487;DHT22;10905;50.822;4.336;2023-02-28T05:16:16;1.10;99.90
21487;DHT22;10905;50.822;4.336;2023-02-28T05:18:42;1.20;99.90
21487;DHT22;10905;50.822;4.336;2023-02-28T05:21:30;1.30;99.90
21487;DHT22;10905;50.822;4.336;2023-02-28T05:23:58;1.30;99.90
21487;DHT22;10905;50.822;4.336;2023-02-28T05:26:24;1.30;99.90
21487;DHT22;10905;50.822;4.336;2023-02-28T05:28:50;1.30;99.90
21487;DHT22;10905;50.822;4.336;2023-02-28T05:31:15;1.40;99.90
21487;DHT22;10905;50.822;4.336;2023-02-28T05:33:41;1.40;99.90
21487;DHT22;10905;50.822;4.336;2023-02-28T05:36:07;1.30;99.90
21487;DHT22;10905;50.822;4.336;2023-02-28T05:38:33;1.30;99.90
21487;DHT22;10905;50.822;4.336;2023-02-28T05:40:58;1.30;99.90
21487;DHT22;10905;50.822;4.336;2023-02-28T05:43:24;1.30;99.90
21487;DHT22;10905;50.822;4.336;2023-02-28T05:45:52;1.30;99.90
21487;DHT22;10905;50.822;4.336;2023-02-28T05:48:17;1.30;99.90
21487;DHT22;10905;50.822;4.336;2023-02-28T05:50:43;1.30;99.90
21487;DHT22;10905;50.822;4.336;2023-02-28T05:53:11;1.30;99.90
21487;DHT22;10905;50.822;4.336;2023-02-28T05:55:37;1.30;99.90
21487;DHT22;10905;50.822;4.336;2023-02-28T05:58:03;1.30;99.90
21487;DHT22;10905;50.822;4.336;2023-02-28T06:00:30;1.40;99.90
21487;DHT22;10905;50.822;4.336;2023-02-28T06:02:56;1.60;99.90
21487;DHT22;10905;50.822;4.336;2023-02-28T06:05:25;1.70;99.90
21487;DHT22;10905;50.822;4.336;2023-02-28T06:07:50;1.70;99.90
21487;DHT22;10905;50.822;4.336;2023-02-28T06:10:16;1.70;99.90
21487;DHT22;10905;50.822;4.336;2023-02-28T06:12:42;1.90;99.90
21487;DHT22;10905;50.822;4.336;2023-02-28T06:15:12;1.80;99.90
21487;DHT22;10905;50.822;4.336;2023-02-28T06:17:38;1.80;99.90
21487;DHT22;10905;50.822;4.336;2023-02-28T06:20:04;1.80;99.90
21487;DHT22;10905;50.822;4.336;2023-02-28T06:22:31;1.80;99.90
21487;DHT22;10905;50.822;4.336;2023-02-28T06:24:57;2.00;99.90
21487;DHT22;10905;50.822;4.336;2023-02-28T06:27:23;2.00;99.90
21487;DHT22;10905;50.822;4.336;2023-02-28T06:29:48;2.00;99.90
21487;DHT22;10905;50.822;4.336;2023-02-28T06:32:14;1.70;99.90
21487;DHT22;10905;50.822;4.336;2023-02-28T06:34:39;1.70;99.90
21487;DHT22;10905;50.822;4.336;2023-02-28T06:37:05;1.70;99.90
21487;DHT22;10905;50.822;4.336;2023-02-28T06:39:31;1.80;99.90
21487;DHT22;10905;50.822;4.336;2023-02-28T06:41:57;1.80;99.90
21487;DHT22;10905;50.822;4.336;2023-02-28T06:44:23;1.90;99.90
21487;DHT22;10905;50.822;4.336;2023-02-28T06:46:52;2.00;99.90
21487;DHT22;10905;50.822;4.336;2023-02-28T06:49:19;2.00;99.90
21487;DHT22;10905;50.822;4.336;2023-02-28T06:51:45;1.90;99.90
21487;DHT22;10905;50.822;4.336;2023-02-28T06:54:12;2.00;99.90
21487;DHT22;10905;50.822;4.336;2023-02-28T06:56:38;1.80;99.90
21487;DHT22;10905;50.822;4.336;2023-02-28T06:59:04;1.80;99.90
21487;DHT22;10905;50.822;4.336;2023-02-28T07:01:30;1.70;99.90
21487;DHT22;10905;50.822;4.336;2023-02-28T07:03:58;1.80;99.90
21487;DHT22;10905;50.822;4.336;2023-02-28T07:06:25;2.00;99.90
21487;DHT22;10905;50.822;4.336;2023-02-28T07:08:52;1.90;99.90
21487;DHT22;10905;50.822;4.336;2023-02-28T07:11:19;1.90;99.90
21487;DHT22;10905;50.822;4.336;2023-02-28T07:13:45;2.00;99.90
21487;DHT22;10905;50.822;4.336;2023-02-28T07:16:13;1.90;99.90
21487;DHT22;10905;50.822;4.336;2023-02-28T07:18:39;1.90;99.90
21487;DHT22;10905;50.822;4.336;2023-02-28T07:21:07;2.00;99.90
21487;DHT22;10905;50.822;4.336;2023-02-28T07:23:33;2.00;99.90
21487;DHT22;10905;50.822;4.336;2023-02-28T07:25:59;2.10;99.90
21487;DHT22;10905;50.822;4.336;2023-02-28T07:28:25;2.10;99.90
21487;DHT22;10905;50.822;4.336;2023-02-28T07:30:52;2.10;99.90
21487;DHT22;10905;50.822;4.336;2023-02-28T07:33:18;2.30;99.90
21487;DHT22;10905;50.822;4.336;2023-02-28T07:35:45;2.20;99.90
21487;DHT22;10905;50.822;4.336;2023-02-28T07:38:11;2.30;99.90
21487;DHT22;10905;50.822;4.336;2023-02-28T07:40:39;2.40;99.90
21487;DHT22;10905;50.822;4.336;2023-02-28T07:43:04;2.50;99.90
21487;DHT22;10905;50.822;4.336;2023-02-28T07:45:30;2.50;99.90
21487;DHT22;10905;50.822;4.336;2023-02-28T07:48:00;2.60;99.90
21487;DHT22;10905;50.822;4.336;2023-02-28T07:50:26;2.50;99.90
21487;DHT22;10905;50.822;4.336;2023-02-28T07:52:54;2.50;99.90
21487;DHT22;10905;50.822;4.336;2023-02-28T07:55:21;2.40;99.90
21487;DHT22;10905;50.822;4.336;2023-02-28T07:57:46;2.30;99.90
21487;DHT22;10905;50.822;4.336;2023-02-28T08:00:12;2.40;99.90
21487;DHT22;10905;50.822;4.336;2023-02-28T08:02:39;2.50;99.90
21487;DHT22;10905;50.822;4.336;2023-02-28T08:05:05;2.50;99.90
21487;DHT22;10905;50.822;4.336;2023-02-28T08:07:31;2.50;99.90
21487;DHT22;10905;50.822;4.336;2023-02-28T08:09:58;2.60;99.90
21487;DHT22;10905;50.822;4.336;2023-02-28T08:12:24;2.70;99.90
21487;DHT22;10905;50.822;4.336;2023-02-28T08:14:51;2.80;99.90
21487;DHT22;10905;50.822;4.336;2023-02-28T08:17:17;2.80;99.90
21487;DHT22;10905;50.822;4.336;2023-02-28T08:19:45;2.80;99.90
21487;DHT22;10905;50.822;4.336;2023-02-28T08:22:11;2.90;99.90
21487;DHT22;10905;50.822;4.336;2023-02-28T08:24:37;2.90;99.90
21487;DHT22;10905;50.822;4.336;2023-02-28T08:27:02;3.10;99.90
21487;DHT22;10905;50.822;4.336;2023-02-28T08:29:28;3.10;99.90
21487;DHT22;10905;50.822;4.336;2023-02-28T08:31:55;3.10;99.90
21487;DHT22;10905;50.822;4.336;2023-02-28T08:34:21;3.00;99.90
21487;DHT22;10905;50.822;4.336;2023-02-28T08:36:46;3.10;99.90
21487;DHT22;10905;50.822;4.336;2023-02-28T08:39:12;3.30;99.90
21487;DHT22;10905;50.822;4.336;2023-02-28T08:41:38;3.40;99.90
21487;DHT22;10905;50.822;4.336;2023-02-28T08:44:04;3.40;99.90
21487;DHT22;10905;50.822;4.336;2023-02-28T08:46:29;3.40;99.90
21487;DHT22;10905;50.822;4.336;2023-02-28T08:48:56;3.30;99.90
21487;DHT22;10905;50.822;4.336;2023-02-28T08:51:26;3.40;99.90
21487;DHT22;10905;50.822;4.336;2023-02-28T08:53:59;3.30;99.90
21487;DHT22;10905;50.822;4.336;2023-02-28T08:56:27;3.30;99.90
21487;DHT22;10905;50.822;4.336;2023-02-28T08:58:55;3.30;99.90
21487;DHT22;10905;50.822;4.336;2023-02-28T09:01:26;3.30;99.90
21487;DHT22;10905;50.822;4.336;2023-02-28T09:03:53;3.30;99.90
21487;DHT22;10905;50.822;4.336;2023-02-28T09:06:21;3.40;99.90
21487;DHT22;10905;50.822;4.336;2023-02-28T09:08:46;3.40;99.90
21487;DHT22;10905;50.822;4.336;2023-02-28T09:11:12;3.50;99.90
21487;DHT22;10905;50.822;4.336;2023-02-28T09:13:39;3.50;99.90
21487;DHT22;10905;50.822;4.336;2023-02-28T09:16:06;3.40;99.90
21487;DHT22;10905;50.822;4.336;2023-02-28T09:18:35;3.30;99.90
21487;DHT22;10905;50.822;4.336;2023-02-28T09:21:07;3.40;99.90
21487;DHT22;10905;50.822;4.336;2023-02-28T09:23:33;3.30;99.90
21487;DHT22;10905;50.822;4.336;2023-02-28T09:25:59;3.30;99.90
21487;DHT22;10905;50.822;4.336;2023-02-28T09:28:25;3.30;99.90
21487;DHT22;10905;50.822;4.336;2023-02-28T09:30:53;3.30;99.90
21487;DHT22;10905;50.822;4.336;2023-02-28T09:33:19;3.30;99.90
21487;DHT22;10905;50.822;4.336;2023-02-28T09:35:48;3.40;99.90
21487;DHT22;10905;50.822;4.336;2023-02-28T09:38:14;3.50;99.90
21487;DHT22;10905;50.822;4.336;2023-02-28T09:40:51;3.60;99.90
21487;DHT22;10905;50.822;4.336;2023-02-28T09:43:19;3.70;99.90
21487;DHT22;10905;50.822;4.336;2023-02-28T09:46:04;3.80;99.90
21487;DHT22;10905;50.822;4.336;2023-02-28T09:48:39;3.70;99.90
21487;DHT22;10905;50.822;4.336;2023-02-28T09:53:36;3.90;99.90
21487;DHT22;10905;50.822;4.336;2023-02-28T09:56:15;4.00;99.90
21487;DHT22;10905;50.822;4.336;2023-02-28T10:10:18;3.80;99.90
21487;DHT22;10905;50.822;4.336;2023-02-28T10:12:45;4.00;99.90
21487;DHT22;10905;50.822;4.336;2023-02-28T10:15:16;4.00;99.90
21487;DHT22;10905;50.822;4.336;2023-02-28T10:17:47;4.10;99.90
21487;DHT22;10905;50.822;4.336;2023-02-28T10:20:19;4.10;99.90
21487;DHT22;10905;50.822;4.336;2023-02-28T10:25:36;3.90;99.90
21487;DHT22;10905;50.822;4.336;2023-02-28T10:28:14;3.90;99.90
21487;DHT22;10905;50.822;4.336;2023-02-28T10:30:50;4.00;99.90
21487;DHT22;10905;50.822;4.336;2023-02-28T10:33:24;4.00;99.90
21487;DHT22;10905;50.822;4.336;2023-02-28T10:35:51;4.10;99.90
21487;DHT22;10905;50.822;4.336;2023-02-28T10:38:22;4.30;99.90
21487;DHT22;10905;50.822;4.336;2023-02-28T10:40:48;4.30;99.90
21487;DHT22;10905;50.822;4.336;2023-02-28T10:45:40;4.30;99.90
21487;DHT22;10905;50.822;4.336;2023-02-28T10:56:16;4.30;99.90
21487;DHT22;10905;50.822;4.336;2023-02-28T10:58:56;4.20;99.90
21487;DHT22;10905;50.822;4.336;2023-02-28T11:01:42;4.10;99.90
21487;DHT22;10905;50.822;4.336;2023-02-28T11:07:03;4.40;99.90
21487;DHT22;10905;50.822;4.336;2023-02-28T11:09:35;4.70;99.90
21487;DHT22;10905;50.822;4.336;2023-02-28T11:12:05;4.70;99.90
21487;DHT22;10905;50.822;4.336;2023-02-28T11:14:56;4.70;99.90
21487;DHT22;10905;50.822;4.336;2023-02-28T11:17:26;4.70;99.90
21487;DHT22;10905;50.822;4.336;2023-02-28T11:20:04;4.70;99.90
21487;DHT22;10905;50.822;4.336;2023-02-28T11:22:36;4.80;99.90
21487;DHT22;10905;50.822;4.336;2023-02-28T11:25:10;4.60;99.90
21487;DHT22;10905;50.822;4.336;2023-02-28T11:27:52;4.50;99.90
21487;DHT22;10905;50.822;4.336;2023-02-28T11:32:50;4.30;99.90
21487;DHT22;10905;50.822;4.336;2023-02-28T11:35:42;4.40;99.90
21487;DHT22;10905;50.822;4.336;2023-02-28T11:38:11;4.50;99.90
21487;DHT22;10905;50.822;4.336;2023-02-28T11:43:29;4.60;99.90
21487;DHT22;10905;50.822;4.336;2023-02-28T11:46:14;4.60;99.90
21487;DHT22;10905;50.822;4.336;2023-02-28T11:49:32;4.70;99.90
21487;DHT22;10905;50.822;4.336;2023-02-28T12:06:45;5.00;99.90
21487;DHT22;10905;50.822;4.336;2023-02-28T12:09:25;5.10;99.90
21487;DHT22;10905;50.822;4.336;2023-02-28T12:11:55;5.00;99.90
21487;DHT22;10905;50.822;4.336;2023-02-28T12:14:52;4.90;99.90
21487;DHT22;10905;50.822;4.336;2023-02-28T12:28:15;5.00;99.90
21487;DHT22;10905;50.822;4.336;2023-02-28T12:31:03;5.10;99.90
21487;DHT22;10905;50.822;4.336;2023-02-28T12:33:36;5.10;98.50
21487;DHT22;10905;50.822;4.336;2023-02-28T12:36:10;5.10;98.60
21487;DHT22;10905;50.822;4.336;2023-02-28T12:38:44;5.00;98.90
21487;DHT22;10905;50.822;4.336;2023-02-28T12:41:33;5.00;98.40
21487;DHT22;10905;50.822;4.336;2023-02-28T12:44:11;4.90;98.80
21487;DHT22;10905;50.822;4.336;2023-02-28T12:46:49;5.00;98.20
21487;DHT22;10905;50.822;4.336;2023-02-28T12:49:25;4.90;98.30
21487;DHT22;10905;50.822;4.336;2023-02-28T12:51:54;4.90;98.50
21487;DHT22;10905;50.822;4.336;2023-02-28T12:57:40;5.10;98.20
21487;DHT22;10905;50.822;4.336;2023-02-28T13:00:19;5.30;98.90
21487;DHT22;10905;50.822;4.336;2023-02-28T13:09:10;5.40;97.60
21487;DHT22;10905;50.822;4.336;2023-02-28T13:14:21;5.50;96.50
21487;DHT22;10905;50.822;4.336;2023-02-28T13:19:34;5.30;96.70
21487;DHT22;10905;50.822;4.336;2023-02-28T13:22:01;5.30;96.40
21487;DHT22;10905;50.822;4.336;2023-02-28T13:24:43;5.40;96.30
21487;DHT22;10905;50.822;4.336;2023-02-28T13:29:42;5.30;96.40
21487;DHT22;10905;50.822;4.336;2023-02-28T13:42:23;5.50;96.10
21487;DHT22;10905;50.822;4.336;2023-02-28T13:55:53;6.00;95.00
21487;DHT22;10905;50.822;4.336;2023-02-28T13:58:41;5.80;94.10
21487;DHT22;10905;50.822;4.336;2023-02-28T14:01:14;5.80;94.30
21487;DHT22;10905;50.822;4.336;2023-02-28T14:04:03;5.60;94.40
21487;DHT22;10905;50.822;4.336;2023-02-28T14:06:36;5.60;94.50
21487;DHT22;10905;50.822;4.336;2023-02-28T14:09:06;5.70;94.90
21487;DHT22;10905;50.822;4.336;2023-02-28T14:11:42;5.70;95.00
21487;DHT22;10905;50.822;4.336;2023-02-28T14:14:09;5.80;94.80
21487;DHT22;10905;50.822;4.336;2023-02-28T14:16:55;5.90;95.10
21487;DHT22;10905;50.822;4.336;2023-02-28T14:19:27;6.00;93.60
21487;DHT22;10905;50.822;4.336;2023-02-28T14:22:07;5.70;93.70
21487;DHT22;10905;50.822;4.336;2023-02-28T14:27:57;5.50;95.40
21487;DHT22;10905;50.822;4.336;2023-02-28T14:31:04;5.50;94.80
21487;DHT22;10905;50.822;4.336;2023-02-28T14:36:40;5.70;95.00
21487;DHT22;10905;50.822;4.336;2023-02-28T14:39:16;5.70;94.90
21487;DHT22;10905;50.822;4.336;2023-02-28T14:41:45;5.80;95.20
21487;DHT22;10905;50.822;4.336;2023-02-28T14:44:18;5.80;94.70
21487;DHT22;10905;50.822;4.336;2023-02-28T14:46:44;5.90;95.20
21487;DHT22;10905;50.822;4.336;2023-02-28T14:49:28;6.10;94.70
21487;DHT22;10905;50.822;4.336;2023-02-28T14:52:27;6.00;95.50
21487;DHT22;10905;50.822;4.336;2023-02-28T14:54:59;6.10;95.40
21487;DHT22;10905;50.822;4.336;2023-02-28T14:57:31;6.10;94.30
21487;DHT22;10905;50.822;4.336;2023-02-28T15:00:09;6.10;94.30
21487;DHT22;10905;50.822;4.336;2023-02-28T15:02:38;6.10;94.30
21487;DHT22;10905;50.822;4.336;2023-02-28T15:07:43;6.00;94.50
21487;DHT22;10905;50.822;4.336;2023-02-28T15:10:24;6.00;95.20
21487;DHT22;10905;50.822;4.336;2023-02-28T15:15:23;6.00;94.90
21487;DHT22;10905;50.822;4.336;2023-02-28T15:17:54;6.00;95.00
21487;DHT22;10905;50.822;4.336;2023-02-28T15:20:21;6.10;94.80
21487;DHT22;10905;50.822;4.336;2023-02-28T15:22:50;6.10;95.30
21487;DHT22;10905;50.822;4.336;2023-02-28T15:25:20;6.10;95.10
21487;DHT22;10905;50.822;4.336;2023-02-28T15:27:49;6.20;95.30
21487;DHT22;10905;50.822;4.336;2023-02-28T15:30:28;6.20;95.30
21487;DHT22;10905;50.822;4.336;2023-02-28T15:35:39;6.20;95.30
21487;DHT22;10905;50.822;4.336;2023-02-28T15:38:24;6.10;94.60
21487;DHT22;10905;50.822;4.336;2023-02-28T15:40:58;5.90;94.80
21487;DHT22;10905;50.822;4.336;2023-02-28T15:43:33;5.90;95.60
21487;DHT22;10905;50.822;4.336;2023-02-28T15:46:07;5.90;95.90
21487;DHT22;10905;50.822;4.336;2023-02-28T15:48:58;6.00;96.30
21487;DHT22;10905;50.822;4.336;2023-02-28T15:51:30;5.80;95.80
21487;DHT22;10905;50.822;4.336;2023-02-28T15:53:59;5.80;95.70
21487;DHT22;10905;50.822;4.336;2023-02-28T15:56:33;5.60;95.70
21487;DHT22;10905;50.822;4.336;2023-02-28T15:59:05;5.60;95.80
21487;DHT22;10905;50.822;4.336;2023-02-28T16:01:33;5.60;96.40
21487;DHT22;10905;50.822;4.336;2023-02-28T16:04:11;5.60;96.00
21487;DHT22;10905;50.822;4.336;2023-02-28T16:06:45;5.50;96.20
21487;DHT22;10905;50.822;4.336;2023-02-28T16:09:15;5.50;96.80
21487;DHT22;10905;50.822;4.336;2023-02-28T16:11:45;5.50;96.90
21487;DHT22;10905;50.822;4.336;2023-02-28T16:14:18;5.50;96.90
21487;DHT22;10905;50.822;4.336;2023-02-28T16:16:46;5.60;96.30
21487;DHT22;10905;50.822;4.336;2023-02-28T16:19:13;5.50;96.20
21487;DHT22;10905;50.822;4.336;2023-02-28T16:21:39;5.40;96.30
21487;DHT22;10905;50.822;4.336;2023-02-28T16:24:05;5.40;96.70
21487;DHT22;10905;50.822;4.336;2023-02-28T16:26:33;5.30;96.80
21487;DHT22;10905;50.822;4.336;2023-02-28T16:29:01;5.30;96.70
21487;DHT22;10905;50.822;4.336;2023-02-28T16:31:28;5.30;97.20
21487;DHT22;10905;50.822;4.336;2023-02-28T16:33:54;5.30;97.90
21487;DHT22;10905;50.822;4.336;2023-02-28T16:36:22;5.40;97.70
21487;DHT22;10905;50.822;4.336;2023-02-28T16:38:50;5.50;97.90
21487;DHT22;10905;50.822;4.336;2023-02-28T16:41:22;5.50;97.50
21487;DHT22;10905;50.822;4.336;2023-02-28T16:43:51;5.50;98.20
21487;DHT22;10905;50.822;4.336;2023-02-28T16:46:18;5.50;98.00
21487;DHT22;10905;50.822;4.336;2023-02-28T16:48:45;5.50;98.60
21487;DHT22;10905;50.822;4.336;2023-02-28T16:51:15;5.50;97.90
21487;DHT22;10905;50.822;4.336;2023-02-28T16:53:42;5.50;98.10
21487;DHT22;10905;50.822;4.336;2023-02-28T16:58:43;5.20;97.80
21487;DHT22;10905;50.822;4.336;2023-02-28T17:01:09;5.10;98.00
21487;DHT22;10905;50.822;4.336;2023-02-28T17:03:36;5.10;98.30
21487;DHT22;10905;50.822;4.336;2023-02-28T17:06:02;5.00;98.50
21487;DHT22;10905;50.822;4.336;2023-02-28T17:08:29;5.00;98.80
21487;DHT22;10905;50.822;4.336;2023-02-28T17:10:58;5.00;99.20
21487;DHT22;10905;50.822;4.336;2023-02-28T17:13:24;4.90;99.10
21487;DHT22;10905;50.822;4.336;2023-02-28T17:15:50;4.90;98.90
21487;DHT22;10905;50.822;4.336;2023-02-28T17:18:18;5.00;99.40
21487;DHT22;10905;50.822;4.336;2023-02-28T17:20:46;5.00;99.40
21487;DHT22;10905;50.822;4.336;2023-02-28T17:23:12;4.90;99.70
21487;DHT22;10905;50.822;4.336;2023-02-28T17:25:40;4.90;99.60
21487;DHT22;10905;50.822;4.336;2023-02-28T17:28:05;4.90;99.70
21487;DHT22;10905;50.822;4.336;2023-02-28T17:30:33;4.80;99.60
21487;DHT22;10905;50.822;4.336;2023-02-28T17:32:59;4.90;99.70
21487;DHT22;10905;50.822;4.336;2023-02-28T17:35:25;4.80;99.90
21487;DHT22;10905;50.822;4.336;2023-02-28T17:37:52;4.70;99.90
21487;DHT22;10905;50.822;4.336;2023-02-28T17:40:20;4.60;99.90
21487;DHT22;10905;50.822;4.336;2023-02-28T17:42:46;4.60;99.90
21487;DHT22;10905;50.822;4.336;2023-02-28T17:45:13;4.70;99.90
21487;DHT22;10905;50.822;4.336;2023-02-28T17:47:39;4.60;99.90
21487;DHT22;10905;50.822;4.336;2023-02-28T17:50:06;4.60;99.90
21487;DHT22;10905;50.822;4.336;2023-02-28T17:52:33;4.60;99.90
21487;DHT22;10905;50.822;4.336;2023-02-28T17:55:03;4.70;99.90
21487;DHT22;10905;50.822;4.336;2023-02-28T17:57:29;4.60;99.90
21487;DHT22;10905;50.822;4.336;2023-02-28T17:59:55;4.60;99.90
21487;DHT22;10905;50.822;4.336;2023-02-28T18:02:21;4.50;99.90
21487;DHT22;10905;50.822;4.336;2023-02-28T18:04:46;4.40;99.90
21487;DHT22;10905;50.822;4.336;2023-02-28T18:07:14;4.50;99.90
21487;DHT22;10905;50.822;4.336;2023-02-28T18:09:40;4.50;99.90
21487;DHT22;10905;50.822;4.336;2023-02-28T18:12:05;4.40;99.90
21487;DHT22;10905;50.822;4.336;2023-02-28T18:14:31;4.40;99.90
21487;DHT22;10905;50.822;4.336;2023-02-28T18:16:58;4.50;99.90
21487;DHT22;10905;50.822;4.336;2023-02-28T18:19:31;4.50;99.90
21487;DHT22;10905;50.822;4.336;2023-02-28T18:21:57;4.40;99.90
21487;DHT22;10905;50.822;4.336;2023-02-28T18:24:25;4.40;99.90
21487;DHT22;10905;50.822;4.336;2023-02-28T18:26:51;4.40;99.90
21487;DHT22;10905;50.822;4.336;2023-02-28T18:29:21;4.40;99.90
21487;DHT22;10905;50.822;4.336;2023-02-28T18:31:47;4.30;99.90